Pagina principale
METAR-TAF:

METAR-TAF

Aeroporti :

Brescia, Italia

Montichiari

latitudine: 45-24-02N, longitudine: 010-18-59E, altezza: 104 m

Osservazione

Il bollettino è stato emesso 54 minuti fa, alle 05:50 UTC
Vento 3 kt da sud-ovest
Temperature 17°C
Umidità 72%
Pressione 1005 hPa
Visibilità 10 km o più
nessuna nube inferiore a 1500 m e nessun cumulonembo

METAR: LIPO 260550Z 23003KT CAVOK 17/12 Q1005

Ora: 08:44 (06:44 UTC)

Previsione

Il bollettino è stato emesso 1 ora e 44 minuti fa, alle 05:00 UTC
Previsione valida dal 26 alle 06 UTC al 27 alle 06 UTC
Vento 10 kt da ovest
Visibilità 10 km o più
Nubi sparse ad un'altezza di 5000 ft

TAF: LIPO 260500Z 2606/2706 27010KT 9999 SCT050

Osservazioni e previsioni meteorologiche di più di 4000 aeroporti (messaggi METAR e TAF).

Le stazioni disponibili sono rappresentate dai dischi gialli e rossi sulla carta.

Puntare il mouse per vedere il nome della stazione.

Clicca sopra per visualizzare le osservazioni e previsioni meteorologiche.

Per cambiare la mappa : fare clic sui pulsanti verdi con una croce nera per ingrandire, il pulsante verde con un trattino per diminuire, o sulla freccia verde per le mappe adiacenti.


METAR-TAF: